sensor_id;sensor_type;location;lat;lon;timestamp;temperature;humidity
29547;DHT22;40782;47.264;11.330;2023-11-22T00:01:37;6.20;99.90
29547;DHT22;40782;47.264;11.330;2023-11-22T00:04:04;6.20;99.90
29547;DHT22;40782;47.264;11.330;2023-11-22T00:06:32;6.20;99.90
29547;DHT22;40782;47.264;11.330;2023-11-22T00:08:58;6.10;99.90
29547;DHT22;40782;47.264;11.330;2023-11-22T00:11:25;6.10;99.90
29547;DHT22;40782;47.264;11.330;2023-11-22T00:13:52;6.10;99.90
29547;DHT22;40782;47.264;11.330;2023-11-22T00:16:21;6.10;99.90
29547;DHT22;40782;47.264;11.330;2023-11-22T00:18:50;6.10;99.90
29547;DHT22;40782;47.264;11.330;2023-11-22T00:21:17;6.20;99.90
29547;DHT22;40782;47.264;11.330;2023-11-22T00:23:45;6.20;99.90
29547;DHT22;40782;47.264;11.330;2023-11-22T00:26:12;6.20;99.90
29547;DHT22;40782;47.264;11.330;2023-11-22T00:28:40;6.20;99.90
29547;DHT22;40782;47.264;11.330;2023-11-22T00:31:07;6.10;99.90
29547;DHT22;40782;47.264;11.330;2023-11-22T00:33:34;6.10;99.90
29547;DHT22;40782;47.264;11.330;2023-11-22T00:36:03;6.10;99.90
29547;DHT22;40782;47.264;11.330;2023-11-22T00:38:33;6.10;99.90
29547;DHT22;40782;47.264;11.330;2023-11-22T00:41:01;6.10;99.90
29547;DHT22;40782;47.264;11.330;2023-11-22T00:43:28;6.10;99.90
29547;DHT22;40782;47.264;11.330;2023-11-22T00:45:56;6.10;99.90
29547;DHT22;40782;47.264;11.330;2023-11-22T00:48:23;6.10;99.90
29547;DHT22;40782;47.264;11.330;2023-11-22T00:50:50;6.00;99.90
29547;DHT22;40782;47.264;11.330;2023-11-22T00:53:18;6.10;99.90
29547;DHT22;40782;47.264;11.330;2023-11-22T00:55:45;6.10;99.90
29547;DHT22;40782;47.264;11.330;2023-11-22T00:58:12;6.10;99.90
29547;DHT22;40782;47.264;11.330;2023-11-22T01:00:39;6.00;99.90
29547;DHT22;40782;47.264;11.330;2023-11-22T01:03:06;6.00;99.90
29547;DHT22;40782;47.264;11.330;2023-11-22T01:05:37;6.00;99.90
29547;DHT22;40782;47.264;11.330;2023-11-22T01:08:04;6.00;99.90
29547;DHT22;40782;47.264;11.330;2023-11-22T01:10:32;5.90;99.90
29547;DHT22;40782;47.264;11.330;2023-11-22T01:12:59;5.90;99.90
29547;DHT22;40782;47.264;11.330;2023-11-22T01:15:26;5.90;99.90
29547;DHT22;40782;47.264;11.330;2023-11-22T01:17:52;6.00;99.90
29547;DHT22;40782;47.264;11.330;2023-11-22T01:20:19;6.00;99.90
29547;DHT22;40782;47.264;11.330;2023-11-22T01:22:48;6.00;99.90
29547;DHT22;40782;47.264;11.330;2023-11-22T01:25:15;5.90;99.90
29547;DHT22;40782;47.264;11.330;2023-11-22T01:27:43;6.00;99.90
29547;DHT22;40782;47.264;11.330;2023-11-22T01:30:11;5.90;99.90
29547;DHT22;40782;47.264;11.330;2023-11-22T01:32:37;5.90;99.90
29547;DHT22;40782;47.264;11.330;2023-11-22T01:35:04;5.90;99.90
29547;DHT22;40782;47.264;11.330;2023-11-22T01:37:32;5.90;99.90
29547;DHT22;40782;47.264;11.330;2023-11-22T01:39:59;5.90;99.90
29547;DHT22;40782;47.264;11.330;2023-11-22T01:42:27;5.90;99.90
29547;DHT22;40782;47.264;11.330;2023-11-22T01:44:56;5.90;99.90
29547;DHT22;40782;47.264;11.330;2023-11-22T01:47:22;5.90;99.90
29547;DHT22;40782;47.264;11.330;2023-11-22T01:49:49;5.90;99.90
29547;DHT22;40782;47.264;11.330;2023-11-22T01:52:17;5.90;99.90
29547;DHT22;40782;47.264;11.330;2023-11-22T01:54:44;5.90;99.90
29547;DHT22;40782;47.264;11.330;2023-11-22T01:57:11;5.90;99.90
29547;DHT22;40782;47.264;11.330;2023-11-22T01:59:38;5.90;99.90
29547;DHT22;40782;47.264;11.330;2023-11-22T02:02:07;5.90;99.90
29547;DHT22;40782;47.264;11.330;2023-11-22T02:04:33;5.90;99.90
29547;DHT22;40782;47.264;11.330;2023-11-22T02:07:02;5.90;99.90
29547;DHT22;40782;47.264;11.330;2023-11-22T02:09:28;5.90;99.90
29547;DHT22;40782;47.264;11.330;2023-11-22T02:11:55;5.90;99.90
29547;DHT22;40782;47.264;11.330;2023-11-22T02:14:23;5.90;99.90
29547;DHT22;40782;47.264;11.330;2023-11-22T02:16:50;5.90;99.90
29547;DHT22;40782;47.264;11.330;2023-11-22T02:19:18;5.90;99.90
29547;DHT22;40782;47.264;11.330;2023-11-22T02:21:45;5.90;99.90
29547;DHT22;40782;47.264;11.330;2023-11-22T02:24:14;5.90;99.90
29547;DHT22;40782;47.264;11.330;2023-11-22T02:26:43;5.90;99.90
29547;DHT22;40782;47.264;11.330;2023-11-22T02:29:10;5.90;99.90
29547;DHT22;40782;47.264;11.330;2023-11-22T02:31:38;5.90;99.90
29547;DHT22;40782;47.264;11.330;2023-11-22T02:34:06;5.90;99.90
29547;DHT22;40782;47.264;11.330;2023-11-22T02:36:33;5.90;99.90
29547;DHT22;40782;47.264;11.330;2023-11-22T02:39:00;5.90;99.90
29547;DHT22;40782;47.264;11.330;2023-11-22T02:41:28;5.90;99.90
29547;DHT22;40782;47.264;11.330;2023-11-22T02:43:56;5.90;99.90
29547;DHT22;40782;47.264;11.330;2023-11-22T02:46:23;5.80;99.90
29547;DHT22;40782;47.264;11.330;2023-11-22T02:48:50;5.90;99.90
29547;DHT22;40782;47.264;11.330;2023-11-22T02:51:17;5.90;99.90
29547;DHT22;40782;47.264;11.330;2023-11-22T02:53:43;5.90;99.90
29547;DHT22;40782;47.264;11.330;2023-11-22T02:56:11;5.80;99.90
29547;DHT22;40782;47.264;11.330;2023-11-22T02:58:39;5.80;99.90
29547;DHT22;40782;47.264;11.330;2023-11-22T03:01:06;5.80;99.90
29547;DHT22;40782;47.264;11.330;2023-11-22T03:03:33;5.80;99.90
29547;DHT22;40782;47.264;11.330;2023-11-22T03:06:01;5.80;99.90
29547;DHT22;40782;47.264;11.330;2023-11-22T03:08:28;5.80;99.90
29547;DHT22;40782;47.264;11.330;2023-11-22T03:10:54;5.80;99.90
29547;DHT22;40782;47.264;11.330;2023-11-22T03:13:21;5.80;99.90
29547;DHT22;40782;47.264;11.330;2023-11-22T03:15:50;5.80;99.90
29547;DHT22;40782;47.264;11.330;2023-11-22T03:18:17;5.70;99.90
29547;DHT22;40782;47.264;11.330;2023-11-22T03:20:44;5.70;99.90
29547;DHT22;40782;47.264;11.330;2023-11-22T03:23:12;5.80;99.90
29547;DHT22;40782;47.264;11.330;2023-11-22T03:25:42;5.70;99.90
29547;DHT22;40782;47.264;11.330;2023-11-22T03:28:09;5.70;99.90
29547;DHT22;40782;47.264;11.330;2023-11-22T03:30:36;5.80;99.90
29547;DHT22;40782;47.264;11.330;2023-11-22T03:33:04;5.80;99.90
29547;DHT22;40782;47.264;11.330;2023-11-22T03:35:31;5.80;99.90
29547;DHT22;40782;47.264;11.330;2023-11-22T03:37:58;5.80;99.90
29547;DHT22;40782;47.264;11.330;2023-11-22T03:40:25;5.80;99.90
29547;DHT22;40782;47.264;11.330;2023-11-22T03:42:51;5.80;99.90
29547;DHT22;40782;47.264;11.330;2023-11-22T03:45:18;5.80;99.90
29547;DHT22;40782;47.264;11.330;2023-11-22T03:47:45;5.80;99.90
29547;DHT22;40782;47.264;11.330;2023-11-22T03:50:13;5.80;99.90
29547;DHT22;40782;47.264;11.330;2023-11-22T03:52:40;5.70;99.90
29547;DHT22;40782;47.264;11.330;2023-11-22T03:55:08;5.70;99.90
29547;DHT22;40782;47.264;11.330;2023-11-22T03:57:35;5.70;99.90
29547;DHT22;40782;47.264;11.330;2023-11-22T04:00:02;5.80;99.90
29547;DHT22;40782;47.264;11.330;2023-11-22T04:02:31;5.80;99.90
29547;DHT22;40782;47.264;11.330;2023-11-22T04:04:58;5.80;99.90
29547;DHT22;40782;47.264;11.330;2023-11-22T04:07:26;5.80;99.90
29547;DHT22;40782;47.264;11.330;2023-11-22T04:09:54;5.80;99.90
29547;DHT22;40782;47.264;11.330;2023-11-22T04:12:21;5.80;99.90
29547;DHT22;40782;47.264;11.330;2023-11-22T04:14:48;5.80;99.90
29547;DHT22;40782;47.264;11.330;2023-11-22T04:17:17;5.80;99.90
29547;DHT22;40782;47.264;11.330;2023-11-22T04:19:44;5.80;99.90
29547;DHT22;40782;47.264;11.330;2023-11-22T04:22:11;5.80;99.90
29547;DHT22;40782;47.264;11.330;2023-11-22T04:24:39;5.80;99.90
29547;DHT22;40782;47.264;11.330;2023-11-22T04:27:06;5.80;99.90
29547;DHT22;40782;47.264;11.330;2023-11-22T04:29:33;5.80;99.90
29547;DHT22;40782;47.264;11.330;2023-11-22T04:32:00;5.80;99.90
29547;DHT22;40782;47.264;11.330;2023-11-22T04:34:28;5.80;99.90
29547;DHT22;40782;47.264;11.330;2023-11-22T04:36:54;5.80;99.90
29547;DHT22;40782;47.264;11.330;2023-11-22T04:39:21;5.80;99.90
29547;DHT22;40782;47.264;11.330;2023-11-22T04:41:50;5.80;99.90
29547;DHT22;40782;47.264;11.330;2023-11-22T04:44:17;5.80;99.90
29547;DHT22;40782;47.264;11.330;2023-11-22T04:46:43;5.80;99.90
29547;DHT22;40782;47.264;11.330;2023-11-22T04:49:10;5.80;99.90
29547;DHT22;40782;47.264;11.330;2023-11-22T04:51:38;5.70;99.90
29547;DHT22;40782;47.264;11.330;2023-11-22T04:54:05;5.70;99.90
29547;DHT22;40782;47.264;11.330;2023-11-22T04:56:33;5.70;99.90
29547;DHT22;40782;47.264;11.330;2023-11-22T04:59:01;5.60;99.90
29547;DHT22;40782;47.264;11.330;2023-11-22T05:01:31;5.60;99.90
29547;DHT22;40782;47.264;11.330;2023-11-22T05:03:58;5.60;99.90
29547;DHT22;40782;47.264;11.330;2023-11-22T05:06:25;5.60;99.90
29547;DHT22;40782;47.264;11.330;2023-11-22T05:08:52;5.60;99.90
29547;DHT22;40782;47.264;11.330;2023-11-22T05:11:20;5.60;99.90
29547;DHT22;40782;47.264;11.330;2023-11-22T05:13:47;5.60;99.90
29547;DHT22;40782;47.264;11.330;2023-11-22T05:16:17;5.60;99.90
29547;DHT22;40782;47.264;11.330;2023-11-22T05:18:44;5.60;99.90
29547;DHT22;40782;47.264;11.330;2023-11-22T05:21:10;5.60;99.90
29547;DHT22;40782;47.264;11.330;2023-11-22T05:23:37;5.60;99.90
29547;DHT22;40782;47.264;11.330;2023-11-22T05:26:04;5.60;99.90
29547;DHT22;40782;47.264;11.330;2023-11-22T05:28:31;5.70;99.90
29547;DHT22;40782;47.264;11.330;2023-11-22T05:30:58;5.70;99.90
29547;DHT22;40782;47.264;11.330;2023-11-22T05:33:27;5.60;99.90
29547;DHT22;40782;47.264;11.330;2023-11-22T05:35:54;5.60;99.90
29547;DHT22;40782;47.264;11.330;2023-11-22T05:38:21;5.60;99.90
29547;DHT22;40782;47.264;11.330;2023-11-22T05:40:48;5.60;99.90
29547;DHT22;40782;47.264;11.330;2023-11-22T05:43:15;5.60;99.90
29547;DHT22;40782;47.264;11.330;2023-11-22T05:45:43;5.60;99.90
29547;DHT22;40782;47.264;11.330;2023-11-22T05:48:15;5.60;99.90
29547;DHT22;40782;47.264;11.330;2023-11-22T05:50:43;5.60;99.90
29547;DHT22;40782;47.264;11.330;2023-11-22T05:53:11;5.60;99.90
29547;DHT22;40782;47.264;11.330;2023-11-22T05:55:37;5.60;99.90
29547;DHT22;40782;47.264;11.330;2023-11-22T05:58:04;5.50;99.90
29547;DHT22;40782;47.264;11.330;2023-11-22T06:00:31;5.60;99.90
29547;DHT22;40782;47.264;11.330;2023-11-22T06:02:58;5.60;99.90
29547;DHT22;40782;47.264;11.330;2023-11-22T06:05:25;5.60;99.90
29547;DHT22;40782;47.264;11.330;2023-11-22T06:07:54;5.60;99.90
29547;DHT22;40782;47.264;11.330;2023-11-22T06:10:22;5.70;99.90
29547;DHT22;40782;47.264;11.330;2023-11-22T06:12:50;5.60;99.90
29547;DHT22;40782;47.264;11.330;2023-11-22T06:15:17;5.60;99.90
29547;DHT22;40782;47.264;11.330;2023-11-22T06:17:46;5.70;99.90
29547;DHT22;40782;47.264;11.330;2023-11-22T06:20:14;5.70;99.90
29547;DHT22;40782;47.264;11.330;2023-11-22T06:22:41;5.70;99.90
29547;DHT22;40782;47.264;11.330;2023-11-22T06:25:09;5.70;99.90
29547;DHT22;40782;47.264;11.330;2023-11-22T06:27:37;5.60;99.90
29547;DHT22;40782;47.264;11.330;2023-11-22T06:30:04;5.60;99.90
29547;DHT22;40782;47.264;11.330;2023-11-22T06:32:31;5.60;99.90
29547;DHT22;40782;47.264;11.330;2023-11-22T06:34:59;5.60;99.90
29547;DHT22;40782;47.264;11.330;2023-11-22T06:37:26;5.60;99.90
29547;DHT22;40782;47.264;11.330;2023-11-22T06:39:53;5.60;99.90
29547;DHT22;40782;47.264;11.330;2023-11-22T06:42:21;5.60;99.90
29547;DHT22;40782;47.264;11.330;2023-11-22T06:44:48;5.60;99.90
29547;DHT22;40782;47.264;11.330;2023-11-22T06:47:16;5.60;99.90
29547;DHT22;40782;47.264;11.330;2023-11-22T06:49:43;5.60;99.90
29547;DHT22;40782;47.264;11.330;2023-11-22T06:52:10;5.70;99.90
29547;DHT22;40782;47.264;11.330;2023-11-22T06:54:38;5.80;99.90
29547;DHT22;40782;47.264;11.330;2023-11-22T06:57:05;5.80;99.90
29547;DHT22;40782;47.264;11.330;2023-11-22T06:59:33;5.80;99.90
29547;DHT22;40782;47.264;11.330;2023-11-22T07:02:00;5.80;99.90
29547;DHT22;40782;47.264;11.330;2023-11-22T07:04:26;5.80;99.90
29547;DHT22;40782;47.264;11.330;2023-11-22T07:06:54;5.70;99.90
29547;DHT22;40782;47.264;11.330;2023-11-22T07:09:22;5.80;99.90
29547;DHT22;40782;47.264;11.330;2023-11-22T07:11:49;5.90;99.90
29547;DHT22;40782;47.264;11.330;2023-11-22T07:14:17;5.90;99.90
29547;DHT22;40782;47.264;11.330;2023-11-22T07:16:46;5.90;99.90
29547;DHT22;40782;47.264;11.330;2023-11-22T07:19:13;5.90;99.90
29547;DHT22;40782;47.264;11.330;2023-11-22T07:21:40;6.00;99.90
29547;DHT22;40782;47.264;11.330;2023-11-22T07:24:07;6.00;99.90
29547;DHT22;40782;47.264;11.330;2023-11-22T07:26:34;6.00;99.90
29547;DHT22;40782;47.264;11.330;2023-11-22T07:29:02;6.00;99.90
29547;DHT22;40782;47.264;11.330;2023-11-22T07:31:31;5.90;99.90
29547;DHT22;40782;47.264;11.330;2023-11-22T07:34:00;6.00;99.90
29547;DHT22;40782;47.264;11.330;2023-11-22T07:36:28;5.90;99.90
29547;DHT22;40782;47.264;11.330;2023-11-22T07:38:56;5.90;99.90
29547;DHT22;40782;47.264;11.330;2023-11-22T07:41:23;5.90;99.90
29547;DHT22;40782;47.264;11.330;2023-11-22T07:43:52;5.90;99.90
29547;DHT22;40782;47.264;11.330;2023-11-22T07:46:19;5.80;99.90
29547;DHT22;40782;47.264;11.330;2023-11-22T07:48:46;5.80;99.90
29547;DHT22;40782;47.264;11.330;2023-11-22T07:51:16;5.90;99.90
29547;DHT22;40782;47.264;11.330;2023-11-22T07:53:43;5.90;99.90
29547;DHT22;40782;47.264;11.330;2023-11-22T07:56:10;5.90;99.90
29547;DHT22;40782;47.264;11.330;2023-11-22T07:58:37;5.90;99.90
29547;DHT22;40782;47.264;11.330;2023-11-22T08:01:04;6.00;99.90
29547;DHT22;40782;47.264;11.330;2023-11-22T08:03:32;6.00;99.90
29547;DHT22;40782;47.264;11.330;2023-11-22T08:06:00;6.00;99.90
29547;DHT22;40782;47.264;11.330;2023-11-22T08:08:29;6.10;99.90
29547;DHT22;40782;47.264;11.330;2023-11-22T08:10:56;6.00;99.90
29547;DHT22;40782;47.264;11.330;2023-11-22T08:13:23;6.00;99.90
29547;DHT22;40782;47.264;11.330;2023-11-22T08:15:51;6.00;99.90
29547;DHT22;40782;47.264;11.330;2023-11-22T08:18:18;6.10;99.90
29547;DHT22;40782;47.264;11.330;2023-11-22T08:20:46;6.10;99.90
29547;DHT22;40782;47.264;11.330;2023-11-22T08:23:13;6.10;99.90
29547;DHT22;40782;47.264;11.330;2023-11-22T08:25:41;6.10;99.90
29547;DHT22;40782;47.264;11.330;2023-11-22T08:28:09;6.10;99.90
29547;DHT22;40782;47.264;11.330;2023-11-22T08:30:36;6.10;99.90
29547;DHT22;40782;47.264;11.330;2023-11-22T08:33:03;6.10;99.90
29547;DHT22;40782;47.264;11.330;2023-11-22T08:35:30;6.10;99.90
29547;DHT22;40782;47.264;11.330;2023-11-22T08:37:57;6.20;99.90
29547;DHT22;40782;47.264;11.330;2023-11-22T08:40:24;6.30;99.90
29547;DHT22;40782;47.264;11.330;2023-11-22T08:42:52;6.30;99.90
29547;DHT22;40782;47.264;11.330;2023-11-22T08:45:19;6.30;99.90
29547;DHT22;40782;47.264;11.330;2023-11-22T08:47:46;6.30;99.90
29547;DHT22;40782;47.264;11.330;2023-11-22T08:50:15;6.40;99.90
29547;DHT22;40782;47.264;11.330;2023-11-22T08:52:42;6.40;99.90
29547;DHT22;40782;47.264;11.330;2023-11-22T08:55:10;6.40;99.90
29547;DHT22;40782;47.264;11.330;2023-11-22T08:57:37;6.40;99.90
29547;DHT22;40782;47.264;11.330;2023-11-22T09:00:08;6.30;99.90
29547;DHT22;40782;47.264;11.330;2023-11-22T09:02:36;6.30;99.90
29547;DHT22;40782;47.264;11.330;2023-11-22T09:05:03;6.30;99.90
29547;DHT22;40782;47.264;11.330;2023-11-22T09:07:32;6.30;99.90
29547;DHT22;40782;47.264;11.330;2023-11-22T09:10:00;6.30;99.90
29547;DHT22;40782;47.264;11.330;2023-11-22T09:12:37;6.20;99.90
29547;DHT22;40782;47.264;11.330;2023-11-22T09:15:05;6.20;99.90
29547;DHT22;40782;47.264;11.330;2023-11-22T09:17:36;6.20;99.90
29547;DHT22;40782;47.264;11.330;2023-11-22T09:20:05;6.30;99.90
29547;DHT22;40782;47.264;11.330;2023-11-22T09:22:36;6.40;99.90
29547;DHT22;40782;47.264;11.330;2023-11-22T09:25:05;6.40;99.90
29547;DHT22;40782;47.264;11.330;2023-11-22T09:27:34;6.40;99.90
29547;DHT22;40782;47.264;11.330;2023-11-22T09:30:03;6.40;99.90
29547;DHT22;40782;47.264;11.330;2023-11-22T09:32:30;6.40;99.90
29547;DHT22;40782;47.264;11.330;2023-11-22T09:34:59;6.40;99.90
29547;DHT22;40782;47.264;11.330;2023-11-22T09:37:26;6.40;99.90
29547;DHT22;40782;47.264;11.330;2023-11-22T09:39:53;6.30;99.90
29547;DHT22;40782;47.264;11.330;2023-11-22T09:42:20;6.30;99.90
29547;DHT22;40782;47.264;11.330;2023-11-22T09:44:47;6.20;99.90
29547;DHT22;40782;47.264;11.330;2023-11-22T09:47:14;6.20;99.90
29547;DHT22;40782;47.264;11.330;2023-11-22T09:49:44;6.20;99.90
29547;DHT22;40782;47.264;11.330;2023-11-22T09:52:16;6.20;99.90
29547;DHT22;40782;47.264;11.330;2023-11-22T09:54:45;6.10;99.90
29547;DHT22;40782;47.264;11.330;2023-11-22T09:57:14;6.10;99.90
29547;DHT22;40782;47.264;11.330;2023-11-22T09:59:42;6.00;99.90
29547;DHT22;40782;47.264;11.330;2023-11-22T10:02:09;6.00;99.90
29547;DHT22;40782;47.264;11.330;2023-11-22T10:04:37;5.90;99.90
29547;DHT22;40782;47.264;11.330;2023-11-22T10:07:04;5.80;99.90
29547;DHT22;40782;47.264;11.330;2023-11-22T10:09:32;5.80;99.90
29547;DHT22;40782;47.264;11.330;2023-11-22T10:12:03;5.80;99.90
29547;DHT22;40782;47.264;11.330;2023-11-22T10:14:30;5.90;99.90
29547;DHT22;40782;47.264;11.330;2023-11-22T10:17:00;5.80;99.90
29547;DHT22;40782;47.264;11.330;2023-11-22T10:19:27;5.90;99.90
29547;DHT22;40782;47.264;11.330;2023-11-22T10:22:03;5.80;99.90
29547;DHT22;40782;47.264;11.330;2023-11-22T10:24:33;5.90;99.90
29547;DHT22;40782;47.264;11.330;2023-11-22T10:27:00;5.90;99.90
29547;DHT22;40782;47.264;11.330;2023-11-22T10:29:27;5.90;99.90
29547;DHT22;40782;47.264;11.330;2023-11-22T10:31:54;6.00;99.90
29547;DHT22;40782;47.264;11.330;2023-11-22T10:34:23;6.00;99.90
29547;DHT22;40782;47.264;11.330;2023-11-22T10:36:49;6.10;99.90
29547;DHT22;40782;47.264;11.330;2023-11-22T10:39:18;6.20;99.90
29547;DHT22;40782;47.264;11.330;2023-11-22T10:41:47;6.20;99.90
29547;DHT22;40782;47.264;11.330;2023-11-22T10:44:15;6.20;99.90
29547;DHT22;40782;47.264;11.330;2023-11-22T10:46:42;6.30;99.90
29547;DHT22;40782;47.264;11.330;2023-11-22T10:49:09;6.30;99.90
29547;DHT22;40782;47.264;11.330;2023-11-22T10:51:36;6.50;99.90
29547;DHT22;40782;47.264;11.330;2023-11-22T10:54:06;6.50;99.90
29547;DHT22;40782;47.264;11.330;2023-11-22T10:56:36;6.60;99.90
29547;DHT22;40782;47.264;11.330;2023-11-22T10:59:06;6.60;99.90
29547;DHT22;40782;47.264;11.330;2023-11-22T11:01:36;6.70;99.90
29547;DHT22;40782;47.264;11.330;2023-11-22T11:04:09;6.70;99.90
29547;DHT22;40782;47.264;11.330;2023-11-22T11:06:37;6.80;99.90
29547;DHT22;40782;47.264;11.330;2023-11-22T11:09:04;6.90;99.90
29547;DHT22;40782;47.264;11.330;2023-11-22T11:11:34;6.90;99.90
29547;DHT22;40782;47.264;11.330;2023-11-22T11:14:01;7.00;99.90
29547;DHT22;40782;47.264;11.330;2023-11-22T11:16:30;7.10;99.90
29547;DHT22;40782;47.264;11.330;2023-11-22T11:19:00;7.20;99.90
29547;DHT22;40782;47.264;11.330;2023-11-22T11:21:27;7.30;99.90
29547;DHT22;40782;47.264;11.330;2023-11-22T11:23:54;7.30;99.90
29547;DHT22;40782;47.264;11.330;2023-11-22T11:26:27;7.20;99.90
29547;DHT22;40782;47.264;11.330;2023-11-22T11:28:54;7.20;99.90
29547;DHT22;40782;47.264;11.330;2023-11-22T11:31:21;7.10;99.90
29547;DHT22;40782;47.264;11.330;2023-11-22T11:33:55;7.00;99.90
29547;DHT22;40782;47.264;11.330;2023-11-22T11:36:23;7.10;99.90
29547;DHT22;40782;47.264;11.330;2023-11-22T11:38:51;7.10;99.90
29547;DHT22;40782;47.264;11.330;2023-11-22T11:41:18;7.20;99.90
29547;DHT22;40782;47.264;11.330;2023-11-22T11:43:45;7.30;99.90
29547;DHT22;40782;47.264;11.330;2023-11-22T11:46:12;7.40;99.90
29547;DHT22;40782;47.264;11.330;2023-11-22T11:48:42;7.40;99.90
29547;DHT22;40782;47.264;11.330;2023-11-22T11:51:11;7.40;99.90
29547;DHT22;40782;47.264;11.330;2023-11-22T11:53:39;7.50;99.90
29547;DHT22;40782;47.264;11.330;2023-11-22T11:56:07;7.50;99.90
29547;DHT22;40782;47.264;11.330;2023-11-22T11:58:34;7.60;99.90
29547;DHT22;40782;47.264;11.330;2023-11-22T12:01:01;7.70;99.90
29547;DHT22;40782;47.264;11.330;2023-11-22T12:03:28;8.10;99.90
29547;DHT22;40782;47.264;11.330;2023-11-22T12:05:55;8.30;99.90
29547;DHT22;40782;47.264;11.330;2023-11-22T12:08:24;8.60;99.90
29547;DHT22;40782;47.264;11.330;2023-11-22T12:10:55;9.00;99.90
29547;DHT22;40782;47.264;11.330;2023-11-22T12:13:24;9.50;99.90
29547;DHT22;40782;47.264;11.330;2023-11-22T12:15:51;9.80;99.90
29547;DHT22;40782;47.264;11.330;2023-11-22T12:18:20;10.30;99.90
29547;DHT22;40782;47.264;11.330;2023-11-22T12:20:54;10.70;99.90
29547;DHT22;40782;47.264;11.330;2023-11-22T12:23:23;11.60;99.90
29547;DHT22;40782;47.264;11.330;2023-11-22T12:25:57;12.40;99.90
29547;DHT22;40782;47.264;11.330;2023-11-22T12:28:25;12.50;99.90
29547;DHT22;40782;47.264;11.330;2023-11-22T12:30:55;12.50;99.90
29547;DHT22;40782;47.264;11.330;2023-11-22T12:33:21;12.40;99.90
29547;DHT22;40782;47.264;11.330;2023-11-22T12:35:48;12.10;99.90
29547;DHT22;40782;47.264;11.330;2023-11-22T12:38:15;11.90;99.90
29547;DHT22;40782;47.264;11.330;2023-11-22T12:40:47;11.90;99.90
29547;DHT22;40782;47.264;11.330;2023-11-22T12:43:13;11.70;99.90
29547;DHT22;40782;47.264;11.330;2023-11-22T12:45:41;12.30;99.90
29547;DHT22;40782;47.264;11.330;2023-11-22T12:48:20;13.40;99.90
29547;DHT22;40782;47.264;11.330;2023-11-22T12:50:49;13.90;99.90
29547;DHT22;40782;47.264;11.330;2023-11-22T12:53:16;14.90;99.90
29547;DHT22;40782;47.264;11.330;2023-11-22T12:55:44;14.90;99.90
29547;DHT22;40782;47.264;11.330;2023-11-22T12:58:13;15.50;99.90
29547;DHT22;40782;47.264;11.330;2023-11-22T13:00:40;15.90;99.90
29547;DHT22;40782;47.264;11.330;2023-11-22T13:03:07;16.40;99.90
29547;DHT22;40782;47.264;11.330;2023-11-22T13:05:35;16.80;99.90
29547;DHT22;40782;47.264;11.330;2023-11-22T13:08:02;17.20;99.90
29547;DHT22;40782;47.264;11.330;2023-11-22T13:10:30;17.40;99.50
29547;DHT22;40782;47.264;11.330;2023-11-22T13:12:57;17.50;99.90
29547;DHT22;40782;47.264;11.330;2023-11-22T13:15:26;17.70;99.60
29547;DHT22;40782;47.264;11.330;2023-11-22T13:17:53;18.00;98.20
29547;DHT22;40782;47.264;11.330;2023-11-22T13:20:21;18.40;98.90
29547;DHT22;40782;47.264;11.330;2023-11-22T13:22:48;18.50;97.00
29547;DHT22;40782;47.264;11.330;2023-11-22T13:25:15;18.90;97.10
29547;DHT22;40782;47.264;11.330;2023-11-22T13:27:44;19.10;96.40
29547;DHT22;40782;47.264;11.330;2023-11-22T13:30:12;19.30;95.10
29547;DHT22;40782;47.264;11.330;2023-11-22T13:32:41;19.20;94.00
29547;DHT22;40782;47.264;11.330;2023-11-22T13:35:08;19.30;95.20
29547;DHT22;40782;47.264;11.330;2023-11-22T13:37:40;19.30;95.60
29547;DHT22;40782;47.264;11.330;2023-11-22T13:40:08;19.40;93.90
29547;DHT22;40782;47.264;11.330;2023-11-22T13:42:41;18.80;94.20
29547;DHT22;40782;47.264;11.330;2023-11-22T13:45:09;17.90;93.80
29547;DHT22;40782;47.264;11.330;2023-11-22T13:47:36;17.90;95.00
29547;DHT22;40782;47.264;11.330;2023-11-22T13:50:05;18.40;94.30
29547;DHT22;40782;47.264;11.330;2023-11-22T13:52:32;18.70;94.30
29547;DHT22;40782;47.264;11.330;2023-11-22T13:54:59;18.80;94.00
29547;DHT22;40782;47.264;11.330;2023-11-22T13:57:27;18.80;93.10
29547;DHT22;40782;47.264;11.330;2023-11-22T13:59:54;18.70;93.00
29547;DHT22;40782;47.264;11.330;2023-11-22T14:02:21;18.60;93.40
29547;DHT22;40782;47.264;11.330;2023-11-22T14:04:47;18.40;92.70
29547;DHT22;40782;47.264;11.330;2023-11-22T14:07:16;18.30;93.30
29547;DHT22;40782;47.264;11.330;2023-11-22T14:09:43;18.20;93.20
29547;DHT22;40782;47.264;11.330;2023-11-22T14:12:12;18.00;93.20
29547;DHT22;40782;47.264;11.330;2023-11-22T14:14:39;18.20;93.80
29547;DHT22;40782;47.264;11.330;2023-11-22T14:17:06;17.80;92.90
29547;DHT22;40782;47.264;11.330;2023-11-22T14:19:32;16.80;92.80
29547;DHT22;40782;47.264;11.330;2023-11-22T14:21:59;15.90;94.10
29547;DHT22;40782;47.264;11.330;2023-11-22T14:24:28;15.10;94.70
29547;DHT22;40782;47.264;11.330;2023-11-22T14:26:56;14.50;95.00
29547;DHT22;40782;47.264;11.330;2023-11-22T14:29:25;13.90;95.40
29547;DHT22;40782;47.264;11.330;2023-11-22T14:31:52;13.40;95.40
29547;DHT22;40782;47.264;11.330;2023-11-22T14:34:20;12.90;97.60
29547;DHT22;40782;47.264;11.330;2023-11-22T14:36:46;12.50;97.70
29547;DHT22;40782;47.264;11.330;2023-11-22T14:39:12;12.20;98.70
29547;DHT22;40782;47.264;11.330;2023-11-22T14:41:41;11.60;98.70
29547;DHT22;40782;47.264;11.330;2023-11-22T14:44:09;11.00;99.40
29547;DHT22;40782;47.264;11.330;2023-11-22T14:46:36;10.60;99.90
29547;DHT22;40782;47.264;11.330;2023-11-22T14:49:03;10.30;99.90
29547;DHT22;40782;47.264;11.330;2023-11-22T14:51:31;10.10;99.90
29547;DHT22;40782;47.264;11.330;2023-11-22T14:53:59;9.90;99.90
29547;DHT22;40782;47.264;11.330;2023-11-22T14:56:26;9.60;99.90
29547;DHT22;40782;47.264;11.330;2023-11-22T14:58:55;9.30;99.90
29547;DHT22;40782;47.264;11.330;2023-11-22T15:01:22;9.20;99.90
29547;DHT22;40782;47.264;11.330;2023-11-22T15:03:50;9.10;99.90
29547;DHT22;40782;47.264;11.330;2023-11-22T15:06:19;9.00;99.90
29547;DHT22;40782;47.264;11.330;2023-11-22T15:08:47;8.80;99.90
29547;DHT22;40782;47.264;11.330;2023-11-22T15:11:14;8.80;99.90
29547;DHT22;40782;47.264;11.330;2023-11-22T15:13:41;8.70;99.90
29547;DHT22;40782;47.264;11.330;2023-11-22T15:16:09;8.50;99.90
29547;DHT22;40782;47.264;11.330;2023-11-22T15:18:38;8.50;99.90
29547;DHT22;40782;47.264;11.330;2023-11-22T15:21:05;8.20;99.90
29547;DHT22;40782;47.264;11.330;2023-11-22T15:23:32;8.00;99.90
29547;DHT22;40782;47.264;11.330;2023-11-22T15:25:59;7.80;99.90
29547;DHT22;40782;47.264;11.330;2023-11-22T15:28:26;7.70;99.90
29547;DHT22;40782;47.264;11.330;2023-11-22T15:30:53;7.70;99.90